Lockport, Louisiana
Current Conditions -  °F | °C
As of 8:50 AM on Tuesday 21 Oct 2014 (Local Time) from KHUM Reporting Station
Clear Clear  
Wind Chill: 64°   Ceiling: Unl
Heat Index: 64°   Visibility: 7mi
Dew Point: 57°   Wind: 9mph
Humidity: 77%   Direction: 360°N
Pressure: 30.05"   Gusts: NA
Location:  29.65°N, 90.54°W
Report Text: KHUM 211350Z 36008KT 7SM SKC 18/14 A3005 RMK ATIS M VA RY36 RC
Loading
Personal Weather Stations






























Interactive Weather Map
Tropical Storm Tracking
New forecast layout! Learn more

10-Day Weather Forecast

Advertisements
Track Severe Weather on mobile